Terminal Aerodrome Forecast
Issued by NWS

Home | Current Version | Previous Version | Text Only | Print | Product List | Glossary On
Versions: 1 2 3 4 5 6 7 8 9 10 11 12 13 14 15 16 17 18 19 20 21 22 23 24 25
000
FTUS42 KFFC 202300
TAFPDK
TAF
KPDK 202332Z 2100/2124 28005KT P6SM VCSH SCT045 BKN100
     FM210100 29008KT P6SM BKN035 BKN080
      TEMPO 2101/2103 VRB15G25KT 4SM -TSRA BKN030CB
     FM210900 29004KT 3SM BR SCT008
     FM211400 28007KT P6SM SCT025
     FM211700 30006KT P6SM SCT045=

USA.gov is the U.S. government's official web portal to all federal, state and local government web resources and services.